createdAt,value
2023-04-15T00:02:18.870Z,10.20
2023-04-15T00:04:48.177Z,10.20
2023-04-15T00:07:16.406Z,10.30
2023-04-15T00:09:44.844Z,10.20
2023-04-15T00:12:12.863Z,10.20
2023-04-15T00:14:40.305Z,10.30
2023-04-15T00:17:08.579Z,10.30
2023-04-15T00:19:36.070Z,10.30
2023-04-15T00:22:03.526Z,10.30
2023-04-15T00:24:32.094Z,10.30
2023-04-15T00:27:00.063Z,10.30
2023-04-15T00:29:27.702Z,10.20
2023-04-15T00:31:55.591Z,10.20
2023-04-15T00:34:23.671Z,10.30
2023-04-15T00:36:52.653Z,10.20
2023-04-15T00:39:20.485Z,10.30
2023-04-15T00:41:48.256Z,10.30
2023-04-15T00:44:15.997Z,10.20
2023-04-15T00:46:45.538Z,10.20
2023-04-15T00:49:13.435Z,10.20
2023-04-15T00:51:40.878Z,10.20
2023-04-15T00:54:08.473Z,10.30
2023-04-15T00:56:38.206Z,10.20
2023-04-15T00:59:07.236Z,10.30
2023-04-15T01:01:36.617Z,10.20
2023-04-15T01:04:05.540Z,10.30
2023-04-15T01:06:33.658Z,10.40
2023-04-15T01:09:01.913Z,10.50
2023-04-15T01:11:30.812Z,10.60
2023-04-15T01:13:59.398Z,10.60
2023-04-15T01:16:28.780Z,10.60
2023-04-15T01:18:56.999Z,10.60
2023-04-15T01:21:24.383Z,10.40
2023-04-15T01:23:53.723Z,10.50
2023-04-15T01:26:23.484Z,10.50
2023-04-15T01:28:51.288Z,10.20
2023-04-15T01:31:18.808Z,10.10
2023-04-15T01:33:47.204Z,9.90
2023-04-15T01:36:15.140Z,9.90
2023-04-15T01:38:42.727Z,10.00
2023-04-15T01:41:10.568Z,9.90
2023-04-15T01:43:37.990Z,9.80
2023-04-15T01:46:06.490Z,9.90
2023-04-15T01:48:34.052Z,10.00
2023-04-15T01:51:01.529Z,9.90
2023-04-15T01:53:29.749Z,9.90
2023-04-15T01:55:57.355Z,10.10
2023-04-15T01:58:24.853Z,10.20
2023-04-15T02:00:52.335Z,10.40
2023-04-15T02:03:20.036Z,10.30
2023-04-15T02:05:47.535Z,10.30
2023-04-15T02:08:15.013Z,10.20
2023-04-15T02:10:42.784Z,9.60
2023-04-15T02:13:10.974Z,9.50
2023-04-15T02:15:38.456Z,9.30
2023-04-15T02:18:05.898Z,9.30
2023-04-15T02:20:33.554Z,9.40
2023-04-15T02:23:01.598Z,9.50
2023-04-15T02:25:29.056Z,9.10
2023-04-15T02:27:58.573Z,8.90
2023-04-15T02:30:26.266Z,8.90
2023-04-15T02:32:53.895Z,9.00
2023-04-15T02:35:21.576Z,8.90
2023-04-15T02:37:49.060Z,8.90
2023-04-15T02:40:16.427Z,8.80
2023-04-15T02:42:44.482Z,9.00
2023-04-15T02:45:13.133Z,9.30
2023-04-15T02:47:41.806Z,9.70
2023-04-15T02:50:11.488Z,9.90
2023-04-15T02:52:42.917Z,10.10
2023-04-15T02:55:10.653Z,10.20
2023-04-15T02:57:39.180Z,10.30
2023-04-15T03:00:09.891Z,10.20
2023-04-15T03:02:38.970Z,10.20
2023-04-15T03:05:07.163Z,10.10
2023-04-15T03:07:34.880Z,9.90
2023-04-15T03:10:02.466Z,9.90
2023-04-15T03:12:30.535Z,9.80
2023-04-15T03:14:58.008Z,10.00
2023-04-15T03:17:25.583Z,9.60
2023-04-15T03:19:53.001Z,9.60
2023-04-15T03:22:20.605Z,9.80
2023-04-15T03:24:48.198Z,9.90
2023-04-15T03:27:15.597Z,10.00
2023-04-15T03:29:43.181Z,9.90
2023-04-15T03:32:10.758Z,9.70
2023-04-15T03:34:38.122Z,9.40
2023-04-15T03:37:06.342Z,9.20
2023-04-15T03:39:33.828Z,9.30
2023-04-15T03:42:01.992Z,9.40
2023-04-15T03:44:29.480Z,9.40
2023-04-15T03:46:57.010Z,9.50
2023-04-15T03:49:24.716Z,9.70
2023-04-15T03:51:52.525Z,9.70
2023-04-15T03:54:19.972Z,9.90
2023-04-15T03:56:47.354Z,9.80
2023-04-15T03:59:14.823Z,9.90
2023-04-15T04:01:42.313Z,9.70
2023-04-15T04:04:10.084Z,9.80
2023-04-15T04:06:37.706Z,9.80
2023-04-15T04:09:05.198Z,9.80
2023-04-15T04:11:33.212Z,9.80
2023-04-15T04:14:00.681Z,9.90
2023-04-15T04:16:28.289Z,10.00
2023-04-15T04:18:55.981Z,9.90
2023-04-15T04:21:23.559Z,9.90
2023-04-15T04:23:51.398Z,9.80
2023-04-15T04:26:19.867Z,9.60
2023-04-15T04:28:47.330Z,9.50
2023-04-15T04:31:14.897Z,9.50
2023-04-15T04:33:42.277Z,9.50
2023-04-15T04:36:09.802Z,9.40
2023-04-15T04:38:37.325Z,9.20
2023-04-15T04:41:04.856Z,9.30
2023-04-15T04:43:32.376Z,9.30
2023-04-15T04:45:59.826Z,9.30
2023-04-15T04:48:27.223Z,9.30
2023-04-15T04:50:55.062Z,9.30
2023-04-15T04:53:22.636Z,9.20
2023-04-15T04:55:50.040Z,9.30
2023-04-15T04:58:17.574Z,9.40
2023-04-15T05:00:45.201Z,9.50
2023-04-15T05:03:12.794Z,9.50
2023-04-15T05:05:41.339Z,9.70
2023-04-15T05:08:08.715Z,9.70
2023-04-15T05:10:36.665Z,9.80
2023-04-15T05:13:04.122Z,9.80
2023-04-15T05:15:32.508Z,9.80
2023-04-15T05:17:59.956Z,9.70
2023-04-15T05:20:27.424Z,9.70
2023-04-15T05:22:54.797Z,9.70
2023-04-15T05:25:22.464Z,9.80
2023-04-15T05:27:50.159Z,9.90
2023-04-15T05:30:17.657Z,9.90
2023-04-15T05:32:45.220Z,10.00
2023-04-15T05:35:12.998Z,10.10
2023-04-15T05:37:40.805Z,10.10
2023-04-15T05:40:10.662Z,10.10
2023-04-15T05:42:38.418Z,9.40
2023-04-15T05:45:09.287Z,9.00
2023-04-15T05:47:37.770Z,9.40
2023-04-15T05:50:08.745Z,9.40
2023-04-15T05:52:36.250Z,9.50
2023-04-15T05:55:03.982Z,9.80
2023-04-15T05:57:31.724Z,9.90
2023-04-15T05:59:59.214Z,10.00
2023-04-15T06:02:26.860Z,10.10
2023-04-15T06:04:54.490Z,10.30
2023-04-15T06:07:21.928Z,10.30
2023-04-15T06:09:49.614Z,10.30
2023-04-15T06:12:17.330Z,10.30
2023-04-15T06:14:44.747Z,10.30
2023-04-15T06:17:15.009Z,10.50
2023-04-15T06:19:42.837Z,10.80
2023-04-15T06:22:10.313Z,10.90
2023-04-15T06:24:37.904Z,11.10
2023-04-15T06:27:05.378Z,11.20
2023-04-15T06:29:32.800Z,11.30
2023-04-15T06:32:00.675Z,11.50
2023-04-15T06:34:28.192Z,11.70
2023-04-15T06:36:56.154Z,11.80
2023-04-15T06:39:23.574Z,12.00
2023-04-15T06:41:51.452Z,12.30
2023-04-15T06:44:19.109Z,12.40
2023-04-15T06:46:46.515Z,12.40
2023-04-15T06:49:14.303Z,12.80
2023-04-15T06:51:45.103Z,12.90
2023-04-15T06:54:12.685Z,13.20
2023-04-15T06:56:40.170Z,13.70
2023-04-15T06:59:08.926Z,14.10
2023-04-15T07:01:36.630Z,14.40
2023-04-15T07:04:04.284Z,15.50
2023-04-15T07:06:32.873Z,17.10
2023-04-15T07:09:00.578Z,17.50
2023-04-15T07:11:28.420Z,17.50
2023-04-15T07:13:56.006Z,16.80
2023-04-15T07:16:23.497Z,17.10
2023-04-15T07:18:51.500Z,17.30
2023-04-15T07:21:18.964Z,18.50
2023-04-15T07:23:46.730Z,20.50
2023-04-15T07:26:14.392Z,21.20
2023-04-15T07:28:41.839Z,22.40
2023-04-15T07:31:09.490Z,22.50
2023-04-15T07:33:37.524Z,21.40
2023-04-15T07:36:05.330Z,21.00
2023-04-15T07:38:32.762Z,21.60
2023-04-15T07:41:00.344Z,21.70
2023-04-15T07:43:28.453Z,20.60
2023-04-15T07:45:56.067Z,20.80
2023-04-15T07:48:23.558Z,20.80
2023-04-15T07:50:51.235Z,21.20
2023-04-15T07:53:18.802Z,21.80
2023-04-15T07:55:46.854Z,21.90
2023-04-15T07:58:14.341Z,21.50
2023-04-15T08:00:41.855Z,22.10
2023-04-15T08:03:09.416Z,23.20
2023-04-15T08:05:37.262Z,24.30
2023-04-15T08:08:05.152Z,24.70
2023-04-15T08:10:32.697Z,24.30
2023-04-15T08:13:00.275Z,24.80
2023-04-15T08:15:28.563Z,24.80
2023-04-15T08:17:56.146Z,25.40
2023-04-15T08:20:24.124Z,24.50
2023-04-15T08:22:52.730Z,23.40
2023-04-15T08:25:20.371Z,23.80
2023-04-15T08:27:48.402Z,23.70
2023-04-15T08:30:15.917Z,23.80
2023-04-15T08:32:47.011Z,25.10
2023-04-15T08:35:14.776Z,23.40
2023-04-15T08:37:42.918Z,22.80
2023-04-15T08:40:11.644Z,22.90
2023-04-15T08:42:45.174Z,23.50
2023-04-15T08:45:12.592Z,23.40
2023-04-15T08:47:41.251Z,23.40
2023-04-15T08:50:10.849Z,24.20
2023-04-15T08:52:38.587Z,24.60
2023-04-15T08:55:07.929Z,24.30
2023-04-15T08:57:37.944Z,24.70
2023-04-15T09:00:06.761Z,24.50
2023-04-15T09:02:34.553Z,24.20
2023-04-15T09:05:05.123Z,24.80
2023-04-15T09:07:35.547Z,24.00
2023-04-15T09:10:04.939Z,23.20
2023-04-15T09:12:37.769Z,22.50
2023-04-15T09:15:05.765Z,22.70
2023-04-15T09:17:34.701Z,23.10
2023-04-15T09:20:09.943Z,22.30
2023-04-15T09:22:38.213Z,23.20
2023-04-15T09:25:27.408Z,24.40
2023-04-15T09:27:57.586Z,25.90
2023-04-15T09:30:25.514Z,24.00
2023-04-15T09:32:54.780Z,23.20
2023-04-15T09:35:23.690Z,22.80
2023-04-15T09:37:51.594Z,21.90
2023-04-15T09:40:40.583Z,21.30
2023-04-15T09:43:09.985Z,20.10
2023-04-15T09:45:37.601Z,20.40
2023-04-15T09:48:27.199Z,21.30
2023-04-15T09:50:58.972Z,20.90
2023-04-15T09:53:26.624Z,21.60
2023-04-15T09:55:56.395Z,22.10
2023-04-15T09:58:33.683Z,22.00
2023-04-15T10:01:03.677Z,22.90
2023-04-15T10:03:34.580Z,23.20
2023-04-15T10:06:02.389Z,23.10
2023-04-15T10:08:33.793Z,23.40
2023-04-15T10:11:05.144Z,23.00
2023-04-15T10:13:35.154Z,23.30
2023-04-15T10:16:14.379Z,23.50
2023-04-15T10:18:46.647Z,23.40
2023-04-15T10:21:18.918Z,24.00
2023-04-15T10:23:47.405Z,23.30
2023-04-15T10:26:17.451Z,23.30
2023-04-15T10:28:47.277Z,23.20
2023-04-15T10:31:15.258Z,23.80
2023-04-15T10:33:44.481Z,23.80
2023-04-15T10:36:12.794Z,24.00
2023-04-15T10:38:45.831Z,24.20
2023-04-15T10:41:15.464Z,23.00
2023-04-15T10:43:53.177Z,22.00
2023-04-15T10:46:25.868Z,21.60
2023-04-15T10:48:54.913Z,21.50
2023-04-15T10:51:30.869Z,21.80
2023-04-15T10:54:01.046Z,22.00
2023-04-15T10:56:30.379Z,22.90
2023-04-15T10:59:00.838Z,23.20
2023-04-15T11:01:55.354Z,23.60
2023-04-15T11:04:57.821Z,23.40
2023-04-15T11:07:47.548Z,23.00
2023-04-15T11:10:18.026Z,23.00
2023-04-15T11:12:46.919Z,22.90
2023-04-15T11:15:32.125Z,22.80
2023-04-15T11:18:00.658Z,22.30
2023-04-15T11:20:29.025Z,23.00
2023-04-15T11:23:08.134Z,23.00
2023-04-15T11:25:43.861Z,22.50
2023-04-15T11:28:12.849Z,21.30
2023-04-15T11:30:42.544Z,21.40
2023-04-15T11:33:12.445Z,22.00
2023-04-15T11:35:42.175Z,22.60
2023-04-15T11:38:15.783Z,21.90
2023-04-15T11:40:46.838Z,20.90
2023-04-15T11:43:21.247Z,20.90
2023-04-15T11:45:56.872Z,21.40
2023-04-15T11:48:35.843Z,21.60
2023-04-15T11:51:07.758Z,22.30
2023-04-15T11:53:41.389Z,22.20
2023-04-15T11:56:10.848Z,20.80
2023-04-15T11:58:39.441Z,20.20
2023-04-15T12:01:07.745Z,19.20
2023-04-15T12:03:43.497Z,18.60
2023-04-15T12:06:20.638Z,18.10
2023-04-15T12:09:06.798Z,17.60
2023-04-15T12:12:00.617Z,17.60
2023-04-15T12:14:30.895Z,17.30
2023-04-15T12:17:07.430Z,17.50
2023-04-15T12:19:40.697Z,17.50
2023-04-15T12:22:16.450Z,17.50
2023-04-15T12:24:48.005Z,17.40
2023-04-15T12:27:17.058Z,17.20
2023-04-15T12:29:45.046Z,17.20
2023-04-15T12:32:17.387Z,17.20
2023-04-15T12:34:53.249Z,17.20
2023-04-15T12:37:21.070Z,17.30
2023-04-15T12:39:49.950Z,17.10
2023-04-15T12:42:18.555Z,17.00
2023-04-15T12:44:47.162Z,17.20
2023-04-15T12:47:15.212Z,17.00
2023-04-15T12:49:42.678Z,16.90
2023-04-15T12:52:10.160Z,17.00
2023-04-15T12:54:37.765Z,17.20
2023-04-15T12:57:07.228Z,17.30
2023-04-15T12:59:36.357Z,17.20
2023-04-15T13:02:04.734Z,17.20
2023-04-15T13:04:32.396Z,17.00
2023-04-15T13:07:01.776Z,16.60
2023-04-15T13:09:29.236Z,16.50
2023-04-15T13:11:57.742Z,16.60
2023-04-15T13:14:25.227Z,16.60
2023-04-15T13:16:53.882Z,16.80
2023-04-15T13:19:21.367Z,16.90
2023-04-15T13:21:48.814Z,16.90
2023-04-15T13:24:16.751Z,16.80
2023-04-15T13:26:44.170Z,16.80
2023-04-15T13:29:12.381Z,16.90
2023-04-15T13:31:40.173Z,16.80
2023-04-15T13:34:07.976Z,16.70
2023-04-15T13:36:35.592Z,16.80
2023-04-15T13:39:03.665Z,16.80
2023-04-15T13:41:31.371Z,16.90
2023-04-15T13:43:59.042Z,16.80
2023-04-15T13:46:26.523Z,17.00
2023-04-15T13:48:53.984Z,17.00
2023-04-15T13:51:22.043Z,17.10
2023-04-15T13:53:49.567Z,17.20
2023-04-15T13:56:17.264Z,17.00
2023-04-15T13:58:45.031Z,17.00
2023-04-15T14:01:12.479Z,17.10
2023-04-15T14:03:40.109Z,17.10
2023-04-15T14:06:07.917Z,16.90
2023-04-15T14:08:35.632Z,16.70
2023-04-15T14:11:03.138Z,16.70
2023-04-15T14:13:31.867Z,16.60
2023-04-15T14:15:59.440Z,16.50
2023-04-15T14:18:27.262Z,16.40
2023-04-15T14:20:55.142Z,16.50
2023-04-15T14:23:23.563Z,16.60
2023-04-15T14:25:52.157Z,16.40
2023-04-15T14:28:19.886Z,16.40
2023-04-15T14:30:47.368Z,16.20
2023-04-15T14:33:14.860Z,16.20
2023-04-15T14:35:42.546Z,16.20
2023-04-15T14:38:11.485Z,16.10
2023-04-15T14:40:39.290Z,16.10
2023-04-15T14:43:07.057Z,16.10
2023-04-15T14:45:35.430Z,16.10
2023-04-15T14:48:02.988Z,16.10
2023-04-15T14:50:30.723Z,16.20
2023-04-15T14:52:58.973Z,16.30
2023-04-15T14:55:26.733Z,16.10
2023-04-15T14:57:54.415Z,15.90
2023-04-15T15:00:21.877Z,15.80
2023-04-15T15:02:49.504Z,15.70
2023-04-15T15:05:17.257Z,15.70
2023-04-15T15:07:44.727Z,15.70
2023-04-15T15:10:12.175Z,15.80
2023-04-15T15:12:39.793Z,15.80
2023-04-15T15:15:19.498Z,15.90
2023-04-15T15:17:55.277Z,16.00
2023-04-15T15:20:24.123Z,16.00
2023-04-15T15:22:51.705Z,15.80
2023-04-15T15:25:19.298Z,15.60
2023-04-15T15:27:47.014Z,15.90
2023-04-15T15:30:14.890Z,16.00
2023-04-15T15:32:43.137Z,15.90
2023-04-15T15:35:11.306Z,15.90
2023-04-15T15:37:38.903Z,15.90
2023-04-15T15:40:07.510Z,15.80
2023-04-15T15:42:35.404Z,15.80
2023-04-15T15:45:04.868Z,15.70
2023-04-15T15:47:32.602Z,15.80
2023-04-15T15:50:02.669Z,15.80
2023-04-15T15:52:31.187Z,15.90
2023-04-15T15:54:58.815Z,15.80
2023-04-15T15:57:26.318Z,15.70
2023-04-15T16:00:04.852Z,15.70
2023-04-15T16:02:59.916Z,15.60
2023-04-15T16:05:25.966Z,15.60
2023-04-15T16:07:53.745Z,15.60
2023-04-15T16:10:21.247Z,15.50
2023-04-15T16:12:48.704Z,15.50
2023-04-15T16:15:16.408Z,15.40
2023-04-15T16:17:43.883Z,15.30
2023-04-15T16:20:11.612Z,15.30
2023-04-15T16:22:39.835Z,15.20
2023-04-15T16:25:07.689Z,15.20
2023-04-15T16:27:46.492Z,15.20
2023-04-15T16:30:22.296Z,15.30
2023-04-15T16:32:49.787Z,15.20
2023-04-15T16:35:17.534Z,15.00
2023-04-15T16:37:45.204Z,15.00
2023-04-15T16:40:12.956Z,15.00
2023-04-15T16:42:43.824Z,15.00
2023-04-15T16:45:11.667Z,14.80
2023-04-15T16:47:39.170Z,14.80
2023-04-15T16:50:07.225Z,14.80
2023-04-15T16:52:34.907Z,14.90
2023-04-15T16:55:02.544Z,14.80
2023-04-15T16:58:00.709Z,14.90
2023-04-15T17:00:17.569Z,15.00
2023-04-15T17:02:45.171Z,14.80
2023-04-15T17:05:12.765Z,14.60
2023-04-15T17:07:40.226Z,14.40
2023-04-15T17:10:08.018Z,14.50
2023-04-15T17:12:35.522Z,14.50
2023-04-15T17:15:03.385Z,14.50
2023-04-15T17:17:30.847Z,14.40
2023-04-15T17:19:58.273Z,14.20
2023-04-15T17:22:25.885Z,14.20
2023-04-15T17:24:53.267Z,14.40
2023-04-15T17:27:21.390Z,14.40
2023-04-15T17:29:49.120Z,14.30
2023-04-15T17:32:16.598Z,14.20
2023-04-15T17:34:49.898Z,14.10
2023-04-15T17:37:18.591Z,14.00
2023-04-15T17:39:46.328Z,13.90
2023-04-15T17:42:14.234Z,13.60
2023-04-15T17:44:41.788Z,13.40
2023-04-15T17:47:09.255Z,13.30
2023-04-15T17:49:37.920Z,13.30
2023-04-15T17:52:05.560Z,13.30
2023-04-15T17:54:33.057Z,13.30
2023-04-15T17:57:01.490Z,13.20
2023-04-15T17:59:29.311Z,13.10
2023-04-15T18:01:58.518Z,13.00
2023-04-15T18:04:26.850Z,12.80
2023-04-15T18:06:54.740Z,12.70
2023-04-15T18:09:22.341Z,12.50
2023-04-15T18:11:49.808Z,12.50
2023-04-15T18:14:27.090Z,12.30
2023-04-15T18:17:01.103Z,12.20
2023-04-15T18:19:28.621Z,12.10
2023-04-15T18:21:56.140Z,12.00
2023-04-15T18:24:23.585Z,12.00
2023-04-15T18:26:51.189Z,11.90
2023-04-15T18:29:18.694Z,11.80
2023-04-15T18:31:46.232Z,11.70
2023-04-15T18:34:13.818Z,11.60
2023-04-15T18:36:41.369Z,11.60
2023-04-15T18:39:08.894Z,11.50
2023-04-15T18:41:36.593Z,11.50
2023-04-15T18:44:03.990Z,11.50
2023-04-15T18:46:31.413Z,11.50
2023-04-15T18:48:59.185Z,11.40
2023-04-15T18:51:27.428Z,11.20
2023-04-15T18:53:54.861Z,11.20
2023-04-15T18:56:22.332Z,11.20
2023-04-15T18:59:21.096Z,11.10
2023-04-15T19:01:37.242Z,11.00
2023-04-15T19:04:04.799Z,10.90
2023-04-15T19:06:32.273Z,10.80
2023-04-15T19:08:59.815Z,10.80
2023-04-15T19:11:27.221Z,10.80
2023-04-15T19:13:54.659Z,10.80
2023-04-15T19:16:22.134Z,10.80
2023-04-15T19:18:49.570Z,10.90
2023-04-15T19:21:16.967Z,10.90
2023-04-15T19:23:44.472Z,10.90
2023-04-15T19:26:12.250Z,10.80
2023-04-15T19:28:39.786Z,10.70
2023-04-15T19:31:07.564Z,10.70
2023-04-15T19:33:35.052Z,10.70
2023-04-15T19:36:04.989Z,10.70
2023-04-15T19:38:33.521Z,10.70
2023-04-15T19:41:00.978Z,10.60
2023-04-15T19:43:28.412Z,10.60
2023-04-15T19:45:56.267Z,10.50
2023-04-15T19:48:25.314Z,10.50
2023-04-15T19:50:52.916Z,10.40
2023-04-15T19:53:20.381Z,10.40
2023-04-15T19:55:48.541Z,10.30
2023-04-15T19:58:16.240Z,10.20
2023-04-15T20:00:43.814Z,10.10
2023-04-15T20:03:11.413Z,10.00
2023-04-15T20:05:38.976Z,9.90
2023-04-15T20:08:06.498Z,9.90
2023-04-15T20:10:34.183Z,9.80
2023-04-15T20:13:01.568Z,9.70
2023-04-15T20:15:29.215Z,9.60
2023-04-15T20:17:56.720Z,9.60
2023-04-15T20:20:24.264Z,9.60
2023-04-15T20:22:53.369Z,9.70
2023-04-15T20:25:21.009Z,9.70
2023-04-15T20:27:48.408Z,9.80
2023-04-15T20:30:15.910Z,9.80
2023-04-15T20:32:43.471Z,9.70
2023-04-15T20:35:11.309Z,9.50
2023-04-15T20:37:40.493Z,9.30
2023-04-15T20:40:08.583Z,9.20
2023-04-15T20:42:35.991Z,9.10
2023-04-15T20:45:03.715Z,9.00
2023-04-15T20:47:31.267Z,8.90
2023-04-15T20:49:58.797Z,8.90
2023-04-15T20:52:26.547Z,8.80
2023-04-15T20:54:53.922Z,8.80
2023-04-15T20:57:21.285Z,8.70
2023-04-15T20:59:48.811Z,8.60
2023-04-15T21:02:16.603Z,8.60
2023-04-15T21:04:44.161Z,8.50
2023-04-15T21:07:12.352Z,8.50
2023-04-15T21:09:41.537Z,8.50
2023-04-15T21:12:09.817Z,8.40
2023-04-15T21:14:37.835Z,8.30
2023-04-15T21:17:10.019Z,8.30
2023-04-15T21:19:38.877Z,8.30
2023-04-15T21:22:06.375Z,8.30
2023-04-15T21:24:33.866Z,8.20
2023-04-15T21:27:02.105Z,8.20
2023-04-15T21:29:29.742Z,8.20
2023-04-15T21:31:57.184Z,8.20
2023-04-15T21:34:24.593Z,8.20
2023-04-15T21:36:52.240Z,8.10
2023-04-15T21:39:19.707Z,8.10
2023-04-15T21:41:47.139Z,8.00
2023-04-15T21:44:15.108Z,8.00
2023-04-15T21:46:46.016Z,7.90
2023-04-15T21:49:14.240Z,7.90
2023-04-15T21:51:42.089Z,7.90
2023-04-15T21:54:10.470Z,7.90
2023-04-15T21:56:38.422Z,8.00
2023-04-15T21:59:06.972Z,8.10
2023-04-15T22:01:35.058Z,8.30
2023-04-15T22:04:03.009Z,8.40
2023-04-15T22:06:31.862Z,8.50
2023-04-15T22:08:59.736Z,8.50
2023-04-15T22:11:27.910Z,8.40
2023-04-15T22:13:57.469Z,8.40
2023-04-15T22:16:26.665Z,8.40
2023-04-15T22:18:55.372Z,8.40
2023-04-15T22:21:23.065Z,8.40
2023-04-15T22:23:52.638Z,8.40
2023-04-15T22:26:20.493Z,8.30
2023-04-15T22:28:48.414Z,8.40
2023-04-15T22:31:16.281Z,8.40
2023-04-15T22:33:44.038Z,8.30
2023-04-15T22:36:15.434Z,8.30
2023-04-15T22:38:43.104Z,8.30
2023-04-15T22:41:10.993Z,8.30
2023-04-15T22:43:40.247Z,8.30
2023-04-15T22:46:07.786Z,8.40
2023-04-15T22:48:35.254Z,8.40
2023-04-15T22:51:03.913Z,8.50
2023-04-15T22:53:31.502Z,8.50
2023-04-15T22:55:58.932Z,8.50
2023-04-15T22:58:26.475Z,8.40
2023-04-15T23:00:54.254Z,8.40
2023-04-15T23:03:21.875Z,8.40
2023-04-15T23:05:49.676Z,8.40
2023-04-15T23:08:17.166Z,8.40
2023-04-15T23:10:44.769Z,8.40
2023-04-15T23:13:12.306Z,8.50
2023-04-15T23:15:39.731Z,8.50
2023-04-15T23:18:07.212Z,8.50
2023-04-15T23:20:34.829Z,8.60
2023-04-15T23:23:02.263Z,8.60
2023-04-15T23:25:29.863Z,8.50
2023-04-15T23:27:57.307Z,8.50
2023-04-15T23:30:24.841Z,8.50
2023-04-15T23:32:52.271Z,8.60
2023-04-15T23:35:19.802Z,8.60
2023-04-15T23:37:47.214Z,8.70
2023-04-15T23:40:15.711Z,8.70
2023-04-15T23:42:43.656Z,8.80
2023-04-15T23:45:12.057Z,8.80
2023-04-15T23:47:40.196Z,8.80
2023-04-15T23:50:09.119Z,8.80
2023-04-15T23:52:37.161Z,8.80
2023-04-15T23:55:04.910Z,8.80
2023-04-15T23:57:32.421Z,8.80
